Time;durP1;ratioP1;P1;durP2;ratioP2;P2;SDS_P1;SDS_P2;PMS_P1;PMS_P2;Temp;Humidity;BMP_temperature;BMP_pressure;BME280_temperature;BME280_humidity;BME280_pressure;Samples;Min_cycle;Max_cycle;Signal;HPM_P1;HPM_P2
2023/04/13 05:29:24;;;;;;;16.00;8.20;;;;;;;6.99;100.00;96533.31;1691695;75;2691464;-76
2023/04/13 05:31:54;;;;;;;16.20;9.00;;;;;;;7.03;100.00;96538.56;1707685;75;699886;-78
2023/04/13 05:34:25;;;;;;;13.65;8.70;;;;;;;7.13;100.00;96536.44;1690646;75;2688495;-76
2023/04/13 05:36:56;;;;;;;11.45;8.50;;;;;;;7.16;100.00;96536.19;1681273;75;2833450;-77
2023/04/13 05:39:27;;;;;;;10.80;8.70;;;;;;;7.21;100.00;96543.66;1715532;75;682797;-75
2023/04/13 05:41:57;;;;;;;10.75;7.75;;;;;;;7.23;100.00;96541.22;1705308;75;929568;-76
2023/04/13 05:44:30;;;;;;;14.70;8.60;;;;;;;7.21;100.00;96542.94;1716155;75;669919;-75
2023/04/13 05:47:01;;;;;;;9.50;7.60;;;;;;;7.20;100.00;96539.47;1707693;75;730050;-75
2023/04/13 05:49:31;;;;;;;17.20;7.90;;;;;;;7.22;100.00;96545.19;1689204;75;2927514;-75
2023/04/13 05:52:02;;;;;;;;;;;;;;;7.14;100.00;96551.53;1656655;75;4996536;-75
2023/04/13 05:54:32;;;;;;;15.90;8.00;;;;;;;7.11;100.00;96545.06;1717835;75;673111;-77
2023/04/13 05:57:02;;;;;;;10.50;6.30;;;;;;;7.18;100.00;96546.63;1710062;75;689332;-76
2023/04/13 05:59:35;;;;;;;9.60;7.20;;;;;;;7.17;100.00;96550.59;1716122;75;952875;-74
2023/04/13 06:02:06;;;;;;;12.60;7.40;;;;;;;7.17;100.00;96548.59;1707996;75;856545;-75
2023/04/13 06:04:36;;;;;;;9.95;6.90;;;;;;;7.20;100.00;96550.34;1715585;75;890692;-76
2023/04/13 06:07:06;;;;;;;10.65;6.75;;;;;;;7.35;100.00;96555.69;1707650;75;686570;-77
2023/04/13 06:09:36;;;;;;;10.35;6.65;;;;;;;7.39;100.00;96561.69;1711488;75;971567;-77
2023/04/13 06:12:07;;;;;;;9.40;5.80;;;;;;;7.49;100.00;96564.25;1705299;75;685797;-78
2023/04/13 06:14:43;;;;;;;7.00;4.90;;;;;;;7.59;100.00;96576.47;1713985;75;678233;-76
2023/04/13 06:17:13;;;;;;;14.50;5.90;;;;;;;7.55;100.00;96576.69;1679884;75;2835373;-79
2023/04/13 06:19:43;;;;;;;7.80;5.70;;;;;;;7.66;100.00;96574.03;1714564;75;676464;-75
2023/04/13 06:22:20;;;;;;;9.40;6.30;;;;;;;7.54;100.00;96582.59;1705895;75;676733;-76
2023/04/13 06:24:51;;;;;;;8.45;6.15;;;;;;;7.49;100.00;96575.13;1700269;75;1878002;-76
2023/04/13 06:27:21;;;;;;;9.10;6.55;;;;;;;7.51;100.00;96581.59;1705718;75;762736;-77
2023/04/13 06:29:54;;;;;;;9.80;6.70;;;;;;;7.51;100.00;96581.59;1713943;75;681202;-79
2023/04/13 06:32:25;;;;;;;11.60;6.40;;;;;;;7.56;100.00;96580.16;1678833;75;2905249;-78
2023/04/13 06:34:55;;;;;;;9.20;6.50;;;;;;;7.49;100.00;96575.13;1713482;75;680329;-77
2023/04/13 06:37:26;;;;;;;11.55;6.60;;;;;;;7.51;100.00;96584.31;1704950;75;746507;-75
2023/04/13 06:39:56;;;;;;;10.85;6.15;;;;;;;7.56;100.00;96580.91;1713149;75;686990;-76
2023/04/13 06:42:26;;;;;;;13.10;7.40;;;;;;;7.56;100.00;96580.91;1688939;75;1945783;-76
2023/04/13 06:44:59;;;;;;;11.65;6.55;;;;;;;7.62;100.00;96586.38;1699236;75;1776498;-77
2023/04/13 06:47:31;;;;;;;8.75;5.90;;;;;;;7.71;100.00;96594.38;1703640;75;738732;-76
2023/04/13 06:50:08;;;;;;;8.90;6.20;;;;;;;7.79;100.00;96589.25;1700166;75;1729973;-77
2023/04/13 06:52:38;;;;;;;9.30;5.80;;;;;;;7.84;100.00;96599.44;1702124;75;766525;-76
2023/04/13 06:55:10;;;;;;;10.70;6.60;;;;;;;7.82;100.00;96597.22;1700011;75;1728819;-75
2023/04/13 06:57:40;;;;;;;9.25;5.60;;;;;;;7.91;100.00;96599.00;1702662;75;737496;-75
2023/04/13 07:00:17;;;;;;;4.85;4.05;;;;;;;8.15;100.00;96611.56;1686792;75;2839987;-78
2023/04/13 07:02:47;;;;;;;7.95;6.30;;;;;;;8.11;100.00;96614.53;1704061;75;750117;-75
2023/04/13 07:05:18;;;;;;;9.20;6.35;;;;;;;8.00;100.00;96617.16;1714358;75;674199;-76
2023/04/13 07:07:48;;;;;;;8.65;5.90;;;;;;;7.87;100.00;96617.56;1694173;75;1809781;-76
2023/04/13 07:10:18;;;;;;;14.95;6.55;;;;;;;7.86;100.00;96614.09;1692589;75;2758837;-76
2023/04/13 07:12:49;;;;;;;8.95;5.90;;;;;;;7.86;100.00;96618.78;1703019;75;863224;-77
2023/04/13 07:15:22;;;;;;;7.85;5.55;;;;;;;7.79;100.00;96617.25;1712900;75;683937;-74
2023/04/13 07:17:52;;;;;;;8.40;5.20;;;;;;;7.89;100.00;96626.00;1703018;75;747029;-76
2023/04/13 07:20:22;;;;;;;8.70;6.45;;;;;;;7.82;100.00;96627.19;1711314;75;753998;-75
2023/04/13 07:22:52;;;;;;;5.85;4.80;;;;;;;7.86;100.00;96625.00;1702812;75;740383;-76
2023/04/13 07:25:23;;;;;;;8.45;5.20;;;;;;;7.86;100.00;96629.69;1709491;75;920067;-75
2023/04/13 07:27:53;;;;;;;11.15;5.25;;;;;;;7.90;100.00;96624.78;1702796;75;738643;-75
2023/04/13 07:30:26;;;;;;;6.90;4.45;;;;;;;8.11;100.00;96634.38;1710121;75;857346;-77
2023/04/13 07:32:56;;;;;;;10.05;5.20;;;;;;;8.10;100.00;96637.56;1690166;75;1762907;-79
2023/04/13 07:35:26;;;;;;;6.30;4.10;;;;;;;8.17;100.00;96648.03;1712302;75;679431;-79
2023/04/13 07:37:57;;;;;;;6.15;3.80;;;;;;;7.94;100.00;96646.34;1701453;75;833305;-78
2023/04/13 07:40:27;;;;;;;5.00;3.60;;;;;;;8.06;100.00;96645.97;1660889;75;5003718;-76
2023/04/13 07:42:59;;;;;;;4.95;3.55;;;;;;;8.05;100.00;96657.34;1676135;75;2882064;-79
2023/04/13 07:45:32;;;;;;;4.80;3.25;;;;;;;8.11;100.00;96652.69;1711778;75;696785;-77
2023/04/13 07:48:04;;;;;;;4.75;3.50;;;;;;;7.98;100.00;96653.06;1609376;75;8592959;-69
2023/04/13 07:50:34;;;;;;;7.00;4.00;;;;;;;8.00;100.00;96660.78;1639352;75;6776763;-72
2023/04/13 07:53:04;;;;;;;10.40;5.20;;;;;;;8.01;100.00;96662.25;1699067;75;984010;-71
2023/04/13 07:55:34;;;;;;;7.40;4.00;;;;;;;8.06;100.00;96659.59;1711429;75;740690;-72
2023/04/13 07:58:04;;;;;;;4.90;3.50;;;;;;;8.06;100.00;96656.88;1700566;75;859216;-70
2023/04/13 08:00:37;;;;;;;5.70;3.50;;;;;;;8.07;100.00;96663.06;1708820;75;892017;-72
2023/04/13 08:03:07;;;;;;;6.70;3.75;;;;;;;8.18;100.00;96663.16;1702191;75;754620;-71
2023/04/13 08:05:38;;;;;;;4.50;3.20;;;;;;;8.06;100.00;96670.50;1711893;75;680795;-70
2023/04/13 08:08:09;;;;;;;6.30;4.20;;;;;;;8.13;100.00;96672.06;1698830;75;1031310;-71
2023/04/13 08:10:39;;;;;;;6.20;3.00;;;;;;;7.92;100.00;96671.38;1711222;75;755275;-71
2023/04/13 08:13:09;;;;;;;4.50;2.40;;;;;;;8.04;100.00;96683.88;1702136;75;760762;-71
2023/04/13 08:15:42;;;;;;;2.85;2.20;;;;;;;8.38;100.00;96681.41;1711942;75;677757;-70
2023/04/13 08:18:13;;;;;;;2.50;2.20;;;;;;;8.36;100.00;96683.13;1702217;75;741114;-70
2023/04/13 08:20:44;;;;;;;2.10;1.60;;;;;;;8.62;100.00;96680.38;1686599;75;2769216;-70
2023/04/13 08:23:14;;;;;;;2.15;1.55;;;;;;;8.65;100.00;96684.84;1701177;75;773907;-71
2023/04/13 08:25:46;;;;;;;2.80;2.20;;;;;;;8.68;100.00;96687.38;1698071;75;1857587;-74
2023/04/13 08:28:16;;;;;;;2.30;1.80;;;;;;;8.65;100.00;96684.84;1703172;75;748875;-71
2023/04/13 08:30:55;;;;;;;2.90;1.80;;;;;;;8.58;100.00;96690.75;1698148;75;1847526;-70
2023/04/13 08:33:25;;;;;;;4.10;1.60;;;;;;;8.79;100.00;96675.75;1702923;75;749602;-73
2023/04/13 08:35:55;;;;;;;1.40;1.10;;;;;;;8.90;100.00;96677.81;1711813;75;677635;-72
2023/04/13 08:38:25;;;;;;;1.20;1.00;;;;;;;8.92;100.00;96670.63;1688550;75;1947868;-72
2023/04/13 08:40:57;;;;;;;0.95;0.95;;;;;;;8.88;100.00;96672.84;1711118;75;766973;-71
2023/04/13 08:43:28;;;;;;;1.45;1.15;;;;;;;8.90;100.00;96675.09;1701642;75;752114;-69
2023/04/13 08:46:01;;;;;;;1.00;0.90;;;;;;;8.95;100.00;96677.09;1674323;75;3824457;-70
2023/04/13 08:48:31;;;;;;;1.75;1.25;;;;;;;8.39;100.00;96677.44;1702420;75;745677;-70
2023/04/13 08:51:07;;;;;;;1.35;1.25;;;;;;;8.34;100.00;96669.97;1710580;75;785060;-70
2023/04/13 08:53:37;;;;;;;3.80;1.80;;;;;;;8.36;100.00;96672.22;1687074;75;1977997;-70
2023/04/13 08:56:11;;;;;;;2.75;1.90;;;;;;;8.33;100.00;96674.69;1711391;75;687216;-72
2023/04/13 08:58:46;;;;;;;1.95;1.35;;;;;;;8.51;100.00;96679.06;1700512;75;830496;-73
2023/04/13 09:01:21;;;;;;;1.80;1.20;;;;;;;8.44;100.00;96684.19;1711102;75;1955819;-71
2023/04/13 09:03:56;;;;;;;3.10;2.10;;;;;;;8.29;100.00;96682.31;1710442;75;767082;-71
2023/04/13 09:06:34;;;;;;;3.20;2.00;;;;;;;8.30;100.00;96681.09;1703835;75;679794;-71
2023/04/13 09:09:08;;;;;;;3.90;2.05;;;;;;;8.47;100.00;96683.25;1710952;75;683158;-72
2023/04/13 09:11:40;;;;;;;2.10;1.75;;;;;;;8.42;100.00;96681.19;1702939;75;683784;-71
2023/04/13 09:14:10;;;;;;;1.70;1.30;;;;;;;8.58;100.00;96683.31;1708425;75;951010;-71
2023/04/13 09:16:47;;;;;;;1.70;1.30;;;;;;;8.40;100.00;96692.63;1703699;75;673889;-73
2023/04/13 09:19:17;;;;;;;1.90;1.40;;;;;;;8.48;100.00;96684.72;1703105;75;757926;-71
2023/04/13 09:21:49;;;;;;;1.50;1.10;;;;;;;8.65;100.00;96682.84;1699471;75;1674395;-71
2023/04/13 09:24:19;;;;;;;1.15;1.00;;;;;;;8.77;100.00;96686.41;1703422;75;680520;-70
2023/04/13 09:26:52;;;;;;;2.20;1.40;;;;;;;8.88;100.00;96691.94;1711626;75;680868;-70
2023/04/13 09:29:23;;;;;;;1.30;1.20;;;;;;;8.94;100.00;96689.97;1702936;75;681771;-71
2023/04/13 09:31:56;;;;;;;1.65;1.00;;;;;;;8.89;100.00;96687.22;1710628;75;675124;-71
2023/04/13 09:34:30;;;;;;;1.10;0.70;;;;;;;8.99;100.00;96695.97;1690785;75;1706557;-70
2023/04/13 09:37:01;;;;;;;0.80;0.80;;;;;;;8.92;100.00;96688.97;1711334;75;676872;-73
2023/04/13 09:39:31;;;;;;;0.60;0.60;;;;;;;8.89;100.00;96700.88;1702622;75;702821;-71
2023/04/13 09:42:16;;;;;;;0.80;0.60;;;;;;;9.05;100.00;96702.94;1710300;75;707032;-73
2023/04/13 09:44:57;;;;;;;1.00;0.50;;;;;;;8.87;100.00;96693.16;1702520;75;740248;-73
2023/04/13 09:47:39;;;;;;;0.50;0.50;;;;;;;8.74;100.00;96701.78;1691198;75;1672211;-70
2023/04/13 09:50:20;;;;;;;0.60;0.60;;;;;;;8.85;100.00;96694.88;1685270;75;2834293;-71
2023/04/13 09:53:00;;;;;;;0.85;0.60;;;;;;;8.90;100.00;96705.09;1701585;75;752738;-75
2023/04/13 09:55:31;;;;;;;0.70;0.50;;;;;;;8.93;100.00;96713.06;1678790;75;2786135;-71
2023/04/13 09:58:13;;;;;;;1.40;0.60;;;;;;;8.91;100.00;96707.34;1711165;75;681118;-71
2023/04/13 10:00:46;;;;;;;1.40;0.60;;;;;;;8.81;100.00;96706.03;1701812;75;732252;-70
2023/04/13 10:03:22;;;;;;;0.70;0.60;;;;;;;8.96;100.00;96705.88;1687254;75;2675595;-71
2023/04/13 10:05:52;;;;;;;0.65;0.60;;;;;;;8.92;100.00;96708.84;1702048;75;744106;-69
2023/04/13 10:08:24;;;;;;;0.90;0.55;;;;;;;8.95;100.00;96707.13;1698697;75;1777731;-71
2023/04/13 10:10:54;;;;;;;0.50;0.50;;;;;;;8.92;100.00;96708.84;1702617;75;729591;-71
2023/04/13 10:13:30;;;;;;;0.70;0.50;;;;;;;8.98;100.00;96702.66;1697091;75;1872306;-70
2023/04/13 10:16:17;;;;;;;0.85;0.50;;;;;;;8.85;100.00;96697.59;1689000;75;1872853;-70
2023/04/13 10:18:59;;;;;;;;;;;;;;;8.81;100.00;96710.75;1701308;75;856822;-71
2023/04/13 10:21:34;;;;;;;0.80;0.50;;;;;;;8.62;100.00;96707.66;1711450;75;683893;-74
2023/04/13 10:24:06;;;;;;;0.50;0.50;;;;;;;8.55;100.00;96700.66;1678460;75;2741085;-70
2023/04/13 10:26:38;;;;;;;1.00;0.70;;;;;;;8.58;100.00;96698.94;1712027;75;670280;-71
2023/04/13 10:29:12;;;;;;;1.00;0.60;;;;;;;8.63;100.00;96709.88;1702366;75;774875;-73
2023/04/13 10:31:45;;;;;;;0.90;0.80;;;;;;;8.46;100.00;96701.56;1711213;75;684570;-73
2023/04/13 10:34:27;;;;;;;1.95;0.70;;;;;;;8.41;100.00;96702.28;1700066;75;838650;-73
2023/04/13 10:37:02;;;;;;;0.80;0.70;;;;;;;8.29;100.00;96700.66;1596662;75;9643255;-69
2023/04/13 10:39:34;;;;;;;0.55;0.55;;;;;;;8.22;100.00;96704.56;1711288;75;689722;-70
2023/04/13 10:42:07;;;;;;;0.50;0.50;;;;;;;8.22;100.00;96703.84;1702411;75;680696;-70
2023/04/13 10:44:48;;;;;;;1.15;0.70;;;;;;;8.26;100.00;96701.63;1710667;75;674727;-70
2023/04/13 10:47:22;;;;;;;0.95;0.90;;;;;;;8.18;100.00;96706.00;1702307;75;757815;-71
2023/04/13 10:49:55;;;;;;;1.50;1.00;;;;;;;8.17;100.00;96710.72;1710858;75;707461;-71
2023/04/13 10:52:25;;;;;;;1.90;0.95;;;;;;;8.37;100.00;96703.69;1701574;75;769243;-74
2023/04/13 10:54:56;;;;;;;1.65;0.85;;;;;;;8.31;100.00;96714.56;1695602;75;1987259;-70
2023/04/13 10:57:26;;;;;;;1.90;1.30;;;;;;;8.12;100.00;96711.44;1702514;75;727808;-70
2023/04/13 10:59:56;;;;;;;1.50;1.00;;;;;;;7.96;100.00;96703.84;1710933;75;696250;-73
2023/04/13 11:02:31;;;;;;;3.25;2.05;;;;;;;8.05;100.00;96706.41;1702571;75;738925;-71
2023/04/13 11:05:04;;;;;;;4.10;2.60;;;;;;;8.01;100.00;96700.41;1711322;75;680240;-72
2023/04/13 11:07:35;;;;;;;2.75;2.00;;;;;;;8.30;100.00;96702.91;1702586;75;746765;-73
2023/04/13 11:10:06;;;;;;;1.80;1.00;;;;;;;8.19;100.00;96699.34;1711153;75;682601;-69
2023/04/13 11:12:36;;;;;;;2.45;0.90;;;;;;;8.36;100.00;96694.78;1701826;75;748822;-70
2023/04/13 11:15:07;;;;;;;0.85;0.85;;;;;;;8.46;100.00;96696.13;1710383;75;728662;-70
2023/04/13 11:17:37;;;;;;;1.20;0.80;;;;;;;8.48;100.00;96698.38;1702384;75;726849;-69
2023/04/13 11:20:14;;;;;;;0.70;0.60;;;;;;;8.54;100.00;96688.25;1711174;75;693168;-70
2023/04/13 11:22:45;;;;;;;0.90;0.75;;;;;;;8.52;100.00;96696.19;1676724;75;2866162;-69
2023/04/13 11:25:16;;;;;;;0.60;0.60;;;;;;;8.46;100.00;96685.19;1711568;75;681602;-73
2023/04/13 11:27:48;;;;;;;0.70;0.60;;;;;;;8.54;100.00;96685.53;1703210;75;739067;-75
2023/04/13 11:30:18;;;;;;;1.60;1.10;;;;;;;8.55;100.00;96681.56;1711423;75;691181;-71
2023/04/13 11:32:49;;;;;;;1.10;1.00;;;;;;;8.45;100.00;96685.72;1703382;75;764533;-70
2023/04/13 11:35:24;;;;;;;3.90;2.80;;;;;;;8.28;100.00;96686.28;1696082;75;1989036;-72
2023/04/13 11:37:58;;;;;;;1.30;1.20;;;;;;;8.40;100.00;96691.88;1700980;75;833267;-71
2023/04/13 11:40:30;;;;;;;1.90;1.10;;;;;;;8.36;100.00;96692.06;1697955;75;1791207;-69
2023/04/13 11:43:02;;;;;;;1.55;0.80;;;;;;;8.46;100.00;96679.00;1702185;75;749939;-73
2023/04/13 11:45:33;;;;;;;4.10;3.40;;;;;;;8.68;100.00;96681.13;1708301;75;913978;-72
2023/04/13 11:48:05;;;;;;;3.05;2.20;;;;;;;8.65;100.00;96673.94;1702104;75;754637;-71
2023/04/13 11:50:38;;;;;;;2.40;1.50;;;;;;;8.44;100.00;96674.06;1637246;75;6873643;-71
2023/04/13 11:53:09;;;;;;;2.45;1.40;;;;;;;8.47;100.00;96680.53;1605193;75;8821479;-72
2023/04/13 11:55:40;;;;;;;0.75;0.70;;;;;;;8.52;100.00;96679.81;1710963;75;687592;-73
2023/04/13 11:58:12;;;;;;;0.75;0.75;;;;;;;8.59;100.00;96673.16;1605416;75;8803550;-70
2023/04/13 12:00:43;;;;;;;1.10;0.90;;;;;;;8.44;100.00;96682.25;1623860;75;7969198;-72
2023/04/13 12:03:27;;;;;;;1.70;1.30;;;;;;;8.46;100.00;96676.28;1701335;75;761853;-72
2023/04/13 12:06:06;;;;;;;0.90;0.90;;;;;;;8.62;100.00;96672.94;1702971;75;684420;-72
2023/04/13 12:08:36;;;;;;;0.70;0.70;;;;;;;8.86;100.00;96663.66;1686952;75;2767210;-72
2023/04/13 12:11:08;;;;;;;1.55;0.80;;;;;;;9.05;100.00;96661.25;1703090;75;694502;-70
2023/04/13 12:13:48;;;;;;;0.70;0.70;;;;;;;9.16;100.00;96656.59;1710218;75;704419;-70
2023/04/13 12:16:28;;;;;;;2.40;1.00;;;;;;;8.72;100.00;96649.66;1700363;75;831183;-70
2023/04/13 12:18:58;;;;;;;1.60;1.10;;;;;;;9.10;100.00;96653.09;1702925;75;674875;-71
2023/04/13 12:21:34;;;;;;;0.80;0.70;;;;;;;9.24;100.00;96656.88;1711055;75;676952;-71
2023/04/13 12:24:06;;;;;;;1.10;0.65;;;;;;;9.12;100.00;96658.06;1703466;75;676714;-73
2023/04/13 12:26:40;;;;;;;1.30;0.90;;;;;;;9.03;100.00;96658.25;1710839;75;678661;-71
2023/04/13 12:29:11;;;;;;;1.05;0.85;;;;;;;8.84;100.00;96657.91;1701537;75;709224;-73
2023/04/13 12:31:43;;;;;;;1.00;0.70;;;;;;;9.03;100.00;96648.09;1710474;75;685582;-72
2023/04/13 12:34:13;;;;;;;1.60;1.10;;;;;;;8.80;100.00;96651.94;1702647;75;700897;-70
2023/04/13 12:36:46;;;;;;;1.20;0.80;;;;;;;8.84;100.00;96652.47;1710754;75;706312;-69
2023/04/13 12:39:16;;;;;;;1.35;0.70;;;;;;;9.20;100.00;96647.41;1702814;75;691928;-70
2023/04/13 12:41:47;;;;;;;0.90;0.70;;;;;;;9.07;100.00;96645.13;1710868;75;675570;-72
2023/04/13 12:44:18;;;;;;;1.00;0.60;;;;;;;9.17;100.00;96649.16;1701528;75;684366;-71
2023/04/13 12:46:48;;;;;;;0.55;0.55;;;;;;;9.22;100.00;96647.69;1711067;75;673723;-70
2023/04/13 12:49:20;;;;;;;2.05;1.75;;;;;;;9.22;100.00;96651.16;1701695;75;734339;-70
2023/04/13 12:51:53;;;;;;;2.10;1.90;;;;;;;9.26;100.00;96645.44;1710571;75;690739;-70
2023/04/13 12:54:23;;;;;;;1.30;1.20;;;;;;;9.16;100.00;96647.63;1701886;75;746687;-71
2023/04/13 12:56:53;;;;;;;1.30;1.00;;;;;;;8.92;100.00;96637.09;1711027;75;685149;-70
2023/04/13 12:59:24;;;;;;;1.10;0.80;;;;;;;8.84;100.00;96631.38;1701081;75;757580;-70
2023/04/13 13:01:54;;;;;;;1.00;0.80;;;;;;;8.90;100.00;96632.16;1710452;75;685820;-71
2023/04/13 13:04:24;;;;;;;1.05;0.70;;;;;;;8.90;100.00;96620.50;1701545;75;771129;-68
2023/04/13 13:06:57;;;;;;;1.40;1.20;;;;;;;8.65;100.00;96619.38;1710825;75;677011;-69
2023/04/13 13:09:28;;;;;;;1.05;0.95;;;;;;;8.85;100.00;96629.38;1702055;75;767572;-69
2023/04/13 13:11:58;;;;;;;1.10;0.90;;;;;;;8.64;100.00;96635.00;1709178;75;730988;-68
2023/04/13 13:14:28;;;;;;;1.75;0.90;;;;;;;8.56;100.00;96631.22;1689600;75;1671334;-70
2023/04/13 13:17:02;;;;;;;1.55;1.00;;;;;;;8.53;100.00;96630.22;1710421;75;676998;-69
2023/04/13 13:19:32;;;;;;;1.40;1.10;;;;;;;8.47;100.00;96632.16;1701654;75;739813;-68
2023/04/13 13:22:05;;;;;;;2.20;0.90;;;;;;;8.58;100.00;96630.72;1709945;75;684037;-68
2023/04/13 13:24:37;;;;;;;1.65;0.90;;;;;;;8.74;100.00;96632.81;1701774;75;752222;-70
2023/04/13 13:27:08;;;;;;;1.75;0.85;;;;;;;8.81;100.00;96637.81;1710538;75;711016;-69
2023/04/13 13:29:38;;;;;;;2.05;1.20;;;;;;;8.31;100.00;96646.41;1701412;75;734415;-68
2023/04/13 13:32:09;;;;;;;1.55;1.15;;;;;;;8.41;100.00;96653.19;1710567;75;690075;-69
2023/04/13 13:34:39;;;;;;;1.30;1.00;;;;;;;8.48;100.00;96647.28;1701955;75;756975;-70
2023/04/13 13:37:12;;;;;;;1.15;0.75;;;;;;;8.60;100.00;96650.09;1710242;75;675505;-71
2023/04/13 13:39:42;;;;;;;0.75;0.70;;;;;;;8.59;100.00;96659.53;1700889;75;742445;-69
2023/04/13 13:42:12;;;;;;;0.95;0.80;;;;;;;8.38;100.00;96650.66;1710160;75;700046;-69
2023/04/13 13:44:43;;;;;;;2.10;1.15;;;;;;;8.33;100.00;96652.13;1689678;75;1701881;-71
2023/04/13 13:47:13;;;;;;;1.90;1.20;;;;;;;8.31;100.00;96647.13;1709960;75;717898;-70
2023/04/13 13:49:43;;;;;;;1.95;1.40;;;;;;;8.19;100.00;96655.72;1701759;75;742842;-68
2023/04/13 13:52:16;;;;;;;2.25;1.60;;;;;;;8.11;100.00;96650.72;1710301;75;686301;-74
2023/04/13 13:54:46;;;;;;;2.45;1.75;;;;;;;8.07;100.00;96644.72;1702147;75;752394;-70
2023/04/13 13:57:16;;;;;;;1.60;1.25;;;;;;;8.20;100.00;96638.13;1710635;75;686260;-72
2023/04/13 13:59:46;;;;;;;1.40;0.90;;;;;;;8.11;100.00;96637.09;1702702;75;720570;-68
2023/04/13 14:02:17;;;;;;;1.35;1.10;;;;;;;8.24;100.00;96635.94;1711211;75;676961;-70
2023/04/13 14:04:47;;;;;;;0.80;0.80;;;;;;;8.33;100.00;96641.22;1702608;75;729486;-68
2023/04/13 14:07:20;;;;;;;1.10;0.90;;;;;;;8.47;100.00;96629.44;1710857;75;677817;-68
2023/04/13 14:09:50;;;;;;;1.65;0.80;;;;;;;8.42;100.00;96626.66;1701875;75;752256;-71
2023/04/13 14:12:21;;;;;;;3.50;0.80;;;;;;;8.44;100.00;96629.66;1710277;75;692977;-69
2023/04/13 14:14:51;;;;;;;1.00;0.70;;;;;;;8.44;100.00;96624.97;1682315;75;2079279;-73
2023/04/13 14:17:22;;;;;;;0.80;0.70;;;;;;;8.62;100.00;96625.81;1709671;75;747937;-70
2023/04/13 14:19:52;;;;;;;2.45;1.55;;;;;;;8.40;100.00;96626.41;1699885;75;821856;-71
2023/04/13 14:22:25;;;;;;;1.85;1.20;;;;;;;8.51;100.00;96623.75;1708984;75;792101;-72
2023/04/13 14:24:55;;;;;;;1.40;0.80;;;;;;;8.72;100.00;96619.66;1701472;75;742517;-69
2023/04/13 14:27:25;;;;;;;1.10;0.80;;;;;;;8.64;100.00;96617.88;1710693;75;688862;-70
2023/04/13 14:29:55;;;;;;;1.20;0.80;;;;;;;8.52;100.00;96619.81;1700211;75;833917;-68
2023/04/13 14:32:26;;;;;;;0.90;0.60;;;;;;;8.72;100.00;96622.38;1710252;75;684369;-69
2023/04/13 14:34:56;;;;;;;1.20;0.70;;;;;;;8.73;100.00;96620.38;1702064;75;727136;-72
2023/04/13 14:37:30;;;;;;;0.60;0.50;;;;;;;8.73;100.00;96612.97;1710917;75;685611;-71
2023/04/13 14:40:00;;;;;;;0.70;0.60;;;;;;;8.74;100.00;96610.97;1701987;75;754569;-69
2023/04/13 14:42:30;;;;;;;0.70;0.70;;;;;;;8.74;100.00;96595.34;1711035;75;677247;-71
2023/04/13 14:45:01;;;;;;;0.40;0.40;;;;;;;8.96;100.00;96602.88;1703303;75;721818;-72
2023/04/13 14:47:31;;;;;;;0.70;0.70;;;;;;;8.86;100.00;96596.16;1711269;75;684481;-71
2023/04/13 14:50:01;;;;;;;1.30;0.70;;;;;;;8.85;100.00;96583.00;1666910;75;3612851;-71
2023/04/13 14:52:34;;;;;;;0.95;0.80;;;;;;;8.87;100.00;96597.63;1707761;75;887195;-72
2023/04/13 14:55:04;;;;;;;0.40;0.40;;;;;;;8.93;100.00;96592.22;1702418;75;724984;-69
2023/04/13 14:57:35;;;;;;;1.15;0.70;;;;;;;8.72;100.00;96597.81;1711334;75;673997;-67
2023/04/13 15:00:06;;;;;;;1.30;1.00;;;;;;;8.72;100.00;96594.34;1701716;75;747945;-68
2023/04/13 15:02:36;;;;;;;1.70;1.20;;;;;;;8.67;100.00;96606.72;1709718;75;692359;-68
2023/04/13 15:05:07;;;;;;;1.70;1.60;;;;;;;8.73;100.00;96593.09;1700721;75;756070;-70
2023/04/13 15:07:44;;;;;;;1.50;1.10;;;;;;;8.81;100.00;96588.69;1710413;75;681487;-68
2023/04/13 15:10:15;;;;;;;2.55;1.15;;;;;;;8.74;100.00;96589.16;1702245;75;732223;-68
2023/04/13 15:12:45;;;;;;;1.10;0.90;;;;;;;8.65;100.00;96592.81;1710127;75;700542;-68
2023/04/13 15:15:15;;;;;;;0.70;0.70;;;;;;;8.76;100.00;96585.94;1702000;75;726980;-72
2023/04/13 15:17:45;;;;;;;1.00;0.70;;;;;;;8.69;100.00;96590.63;1709552;75;683158;-68
2023/04/13 15:20:20;;;;;;;1.25;0.70;;;;;;;8.61;100.00;96597.78;1700604;75;782163;-72
2023/04/13 15:22:53;;;;;;;1.80;0.80;;;;;;;8.41;100.00;96595.91;1709880;75;681222;-69
2023/04/13 15:25:23;;;;;;;1.30;0.75;;;;;;;8.40;100.00;96590.97;1700916;75;763006;-68
2023/04/13 15:27:55;;;;;;;1.85;0.70;;;;;;;8.44;100.00;96578.59;1708421;75;839442;-70
2023/04/13 15:30:29;;;;;;;1.10;0.80;;;;;;;8.42;100.00;96583.78;1701399;75;755464;-68
2023/04/13 15:33:01;;;;;;;2.30;1.35;;;;;;;8.37;100.00;96589.16;1709634;75;685384;-68
2023/04/13 15:35:32;;;;;;;1.90;1.10;;;;;;;8.42;100.00;96585.75;1701509;75;733804;-72
2023/04/13 15:38:08;;;;;;;1.70;1.40;;;;;;;8.29;100.00;96586.16;1710530;75;688546;-69
2023/04/13 15:40:38;;;;;;;2.50;1.70;;;;;;;8.06;100.00;96583.28;1699776;75;897927;-70
2023/04/13 15:43:09;;;;;;;1.70;1.30;;;;;;;8.23;100.00;96575.22;1709727;75;702861;-71
2023/04/13 15:45:40;;;;;;;2.10;1.40;;;;;;;8.21;100.00;96577.69;1602857;75;8967106;-69
2023/04/13 15:48:10;;;;;;;1.85;1.40;;;;;;;8.27;100.00;96581.19;1710562;75;686602;-74
2023/04/13 15:50:40;;;;;;;2.75;1.30;;;;;;;8.14;100.00;96593.75;1700357;75;820257;-69
2023/04/13 15:53:13;;;;;;;1.90;1.40;;;;;;;8.01;100.00;96608.53;1710628;75;707993;-68
2023/04/13 15:55:43;;;;;;;1.95;1.30;;;;;;;8.10;100.00;96602.13;1701517;75;739772;-72
2023/04/13 15:58:14;;;;;;;1.65;1.30;;;;;;;8.00;100.00;96609.75;1697857;75;1784475;-69
2023/04/13 16:00:44;;;;;;;3.10;1.20;;;;;;;8.02;100.00;96610.00;1701926;75;757932;-72
2023/04/13 16:03:15;;;;;;;2.00;1.30;;;;;;;7.94;100.00;96603.50;1709708;75;703555;-69
2023/04/13 16:05:45;;;;;;;1.00;0.90;;;;;;;8.18;100.00;96608.66;1701317;75;747689;-72
2023/04/13 16:08:18;;;;;;;1.30;0.90;;;;;;;8.12;100.00;96599.66;1710667;75;676096;-71
2023/04/13 16:10:48;;;;;;;1.30;1.00;;;;;;;7.95;100.00;96598.81;1698473;75;927726;-71
2023/04/13 16:13:20;;;;;;;1.70;1.20;;;;;;;8.07;100.00;96601.13;1709806;75;680086;-71
2023/04/13 16:15:57;;;;;;;1.40;1.10;;;;;;;8.16;100.00;96616.56;1701696;75;734101;-72
2023/04/13 16:18:31;;;;;;;1.10;1.00;;;;;;;8.00;100.00;96614.44;1702560;75;694712;-69
2023/04/13 16:21:02;;;;;;;2.30;1.30;;;;;;;8.06;100.00;96612.53;1710305;75;695837;-68
2023/04/13 16:23:36;;;;;;;3.70;1.40;;;;;;;7.98;100.00;96604.00;1702318;75;694214;-70
2023/04/13 16:26:06;;;;;;;2.40;1.70;;;;;;;7.71;100.00;96607.28;1710372;75;681987;-70
2023/04/13 16:28:36;;;;;;;2.30;1.50;;;;;;;7.74;100.00;96603.56;1702550;75;671686;-68
2023/04/13 16:31:10;;;;;;;3.20;1.70;;;;;;;7.80;100.00;96590.75;1710104;75;690830;-67
2023/04/13 16:33:40;;;;;;;1.60;1.20;;;;;;;7.83;100.00;96589.78;1702230;75;672065;-70
2023/04/13 16:36:12;;;;;;;3.00;1.30;;;;;;;7.83;100.00;96585.06;1710291;75;673760;-72
2023/04/13 16:38:45;;;;;;;1.20;1.00;;;;;;;7.91;100.00;96590.84;1702960;75;692002;-70
2023/04/13 16:41:15;;;;;;;3.00;1.00;;;;;;;7.81;100.00;96590.25;1709672;75;670402;-74
2023/04/13 16:43:45;;;;;;;1.60;1.20;;;;;;;7.66;100.00;96587.66;1687700;75;1901928;-70
2023/04/13 16:46:16;;;;;;;0.90;0.80;;;;;;;7.82;100.00;96591.78;1710798;75;674908;-73
2023/04/13 16:48:46;;;;;;;1.10;0.90;;;;;;;7.88;100.00;96580.91;1702526;75;677393;-69
2023/04/13 16:51:16;;;;;;;0.75;0.70;;;;;;;7.95;100.00;96582.44;1710449;75;680881;-71
2023/04/13 16:53:49;;;;;;;1.55;0.80;;;;;;;8.01;100.00;96597.63;1700500;75;858130;-70
2023/04/13 16:56:21;;;;;;;0.75;0.75;;;;;;;7.93;100.00;96602.00;1710322;75;701951;-69
2023/04/13 16:58:51;;;;;;;0.90;0.70;;;;;;;7.96;100.00;96608.47;1702451;75;678506;-66
2023/04/13 17:01:23;;;;;;;1.50;1.00;;;;;;;7.81;100.00;96609.31;1709202;75;717450;-69
2023/04/13 17:03:54;;;;;;;1.60;1.00;;;;;;;7.86;100.00;96616.06;1701924;75;719398;-67
2023/04/13 17:06:26;;;;;;;1.90;1.10;;;;;;;7.90;100.00;96609.16;1707721;75;885099;-68
2023/04/13 17:08:58;;;;;;;3.35;2.30;;;;;;;7.44;100.00;96584.75;1701599;75;777109;-70
2023/04/13 17:11:31;;;;;;;6.50;3.60;;;;;;;7.37;100.00;96571.56;1710905;75;675988;-66
2023/04/13 17:14:01;;;;;;;7.60;5.00;;;;;;;7.35;100.00;96566.59;1701402;75;745927;-68